createdAt,value
2023-01-01T00:00:01.171Z,14.9
2023-01-01T00:03:01.360Z,14.9
2023-01-01T00:06:01.095Z,14.9
2023-01-01T00:09:01.113Z,14.9
2023-01-01T00:12:01.091Z,14.9
2023-01-01T00:15:01.101Z,14.9
2023-01-01T00:18:01.105Z,14.9
2023-01-01T00:21:01.183Z,14.9
2023-01-01T00:24:01.076Z,14.9
2023-01-01T00:27:01.076Z,14.9
2023-01-01T00:30:01.303Z,14.6
2023-01-01T00:33:01.518Z,14.6
2023-01-01T00:36:01.196Z,14.6
2023-01-01T00:39:01.073Z,14.6
2023-01-01T00:42:01.077Z,14.6
2023-01-01T00:45:01.217Z,14.6
2023-01-01T00:48:01.080Z,14.6
2023-01-01T00:51:01.045Z,14.6
2023-01-01T00:54:01.213Z,14.6
2023-01-01T00:57:01.029Z,14.6
2023-01-01T01:00:01.118Z,14.6
2023-01-01T01:03:01.584Z,14.6
2023-01-01T01:06:02.003Z,14.6
2023-01-01T01:09:01.147Z,14.6
2023-01-01T01:12:19.085Z,14.6
2023-01-01T01:15:01.135Z,14.8
2023-01-01T01:18:01.043Z,14.8
2023-01-01T01:21:01.240Z,14.8
2023-01-01T01:24:01.121Z,14.8
2023-01-01T01:27:01.073Z,14.8
2023-01-01T01:30:03.320Z,14.8
2023-01-01T01:33:01.134Z,14.8
2023-01-01T01:36:01.124Z,14.8
2023-01-01T01:39:01.122Z,14.8
2023-01-01T01:42:01.124Z,14.8
2023-01-01T01:45:01.258Z,14.8
2023-01-01T01:48:01.128Z,14.8
2023-01-01T01:51:01.147Z,14.8
2023-01-01T01:54:02.688Z,14.8
2023-01-01T01:57:01.089Z,14.8
2023-01-01T02:00:10.551Z,14.8
2023-01-01T02:03:01.138Z,14.8
2023-01-01T02:06:01.096Z,14.7
2023-01-01T02:09:01.044Z,14.8
2023-01-01T02:12:01.243Z,14.8
2023-01-01T02:15:01.094Z,14.8
2023-01-01T02:18:01.201Z,14.8
2023-01-01T02:21:01.194Z,14.8
2023-01-01T02:24:01.129Z,14.8
2023-01-01T02:27:01.194Z,14.8
2023-01-01T02:30:01.290Z,14.8
2023-01-01T02:33:01.110Z,14.8
2023-01-01T02:36:04.690Z,14.8
2023-01-01T02:39:01.095Z,14.8
2023-01-01T02:42:01.148Z,14.8
2023-01-01T02:45:01.141Z,14.7
2023-01-01T02:48:01.551Z,14.7
2023-01-01T02:51:01.150Z,14.7
2023-01-01T02:54:01.039Z,14.7
2023-01-01T02:57:01.190Z,14.7
2023-01-01T03:00:01.158Z,14.7
2023-01-01T03:03:01.305Z,14.7
2023-01-01T03:06:01.025Z,14.7
2023-01-01T03:09:01.101Z,14.7
2023-01-01T03:12:01.087Z,14.7
2023-01-01T03:15:01.219Z,14.7
2023-01-01T03:18:01.316Z,14.7
2023-01-01T03:21:01.221Z,14.4
2023-01-01T03:24:01.037Z,14.4
2023-01-01T03:27:01.034Z,14.4
2023-01-01T03:30:01.131Z,14.4
2023-01-01T03:33:01.098Z,14.4
2023-01-01T03:36:01.026Z,14.4
2023-01-01T03:39:01.047Z,14.4
2023-01-01T03:42:01.070Z,14.4
2023-01-01T03:45:01.077Z,14.4
2023-01-01T03:48:01.063Z,14.4
2023-01-01T03:51:01.098Z,14.4
2023-01-01T03:54:01.076Z,14.5
2023-01-01T03:57:01.051Z,14.5
2023-01-01T04:00:01.079Z,14.5
2023-01-01T04:03:01.198Z,14.5
2023-01-01T04:06:01.065Z,14.5
2023-01-01T04:09:01.029Z,14.5
2023-01-01T04:12:01.066Z,14.5
2023-01-01T04:15:01.030Z,14.4
2023-01-01T04:18:01.086Z,14.4
2023-01-01T04:21:01.047Z,14.4
2023-01-01T04:24:01.038Z,14.4
2023-01-01T04:27:01.706Z,14.4
2023-01-01T04:30:01.092Z,14.4
2023-01-01T04:33:01.028Z,14.4
2023-01-01T04:36:01.051Z,14.4
2023-01-01T04:39:01.041Z,14.4
2023-01-01T04:42:01.094Z,14.4
2023-01-01T04:45:01.193Z,14.4
2023-01-01T04:48:01.065Z,14.4
2023-01-01T04:51:01.039Z,14.4
2023-01-01T04:54:01.176Z,14.3
2023-01-01T04:57:01.013Z,14.3
2023-01-01T05:00:01.118Z,14.3
2023-01-01T05:03:01.134Z,14.3
2023-01-01T05:06:01.134Z,14.3
2023-01-01T05:09:01.100Z,14.3
2023-01-01T05:12:01.206Z,14.3
2023-01-01T05:15:01.060Z,14.2
2023-01-01T05:18:01.047Z,14.2
2023-01-01T05:21:01.066Z,14.2
2023-01-01T05:24:01.090Z,14.2
2023-01-01T05:27:01.083Z,14.2
2023-01-01T05:30:01.167Z,14.2
2023-01-01T05:33:01.064Z,14.1
2023-01-01T05:36:01.209Z,14.1
2023-01-01T05:39:01.066Z,14.1
2023-01-01T05:42:01.063Z,14
2023-01-01T05:45:01.345Z,14
2023-01-01T05:48:01.155Z,14
2023-01-01T05:51:01.092Z,14
2023-01-01T05:54:01.162Z,14
2023-01-01T05:57:01.144Z,14
2023-01-01T06:00:01.050Z,14
2023-01-01T06:03:01.092Z,14
2023-01-01T06:06:01.137Z,14
2023-01-01T06:09:01.163Z,14.1
2023-01-01T06:12:01.137Z,14.1
2023-01-01T06:15:01.042Z,14.1
2023-01-01T06:18:01.152Z,14.1
2023-01-01T06:21:01.056Z,14.1
2023-01-01T06:24:01.251Z,14.1
2023-01-01T06:27:01.161Z,14.1
2023-01-01T06:30:01.366Z,14.1
2023-01-01T06:33:01.133Z,14.1
2023-01-01T06:36:01.057Z,14.1
2023-01-01T06:39:01.051Z,14.1
2023-01-01T06:42:01.191Z,14.1
2023-01-01T06:45:01.120Z,14.1
2023-01-01T06:48:01.067Z,14
2023-01-01T06:51:01.106Z,14
2023-01-01T06:54:01.142Z,14
2023-01-01T06:57:01.222Z,14
2023-01-01T07:00:01.151Z,14.1
2023-01-01T07:03:01.411Z,14.1
2023-01-01T07:06:01.021Z,14.1
2023-01-01T07:09:01.246Z,14.1
2023-01-01T07:12:01.081Z,14.1
2023-01-01T07:15:01.216Z,14.1
2023-01-01T07:18:01.106Z,14
2023-01-01T07:21:01.032Z,14
2023-01-01T07:24:01.148Z,14
2023-01-01T07:27:01.111Z,14
2023-01-01T07:30:01.335Z,14
2023-01-01T07:33:01.152Z,14
2023-01-01T07:36:01.119Z,14
2023-01-01T07:39:01.172Z,14
2023-01-01T07:42:10.642Z,14
2023-01-01T07:45:01.218Z,14
2023-01-01T07:48:01.340Z,14
2023-01-01T07:51:01.115Z,14
2023-01-01T07:54:07.547Z,14
2023-01-01T07:57:01.084Z,14
2023-01-01T08:00:01.267Z,14
2023-01-01T08:03:01.375Z,14
2023-01-01T08:06:01.101Z,14
2023-01-01T08:09:01.075Z,14
2023-01-01T08:12:01.147Z,14
2023-01-01T08:15:01.151Z,14
2023-01-01T08:18:01.236Z,14
2023-01-01T08:21:01.211Z,14
2023-01-01T08:24:01.191Z,14
2023-01-01T08:27:01.075Z,14
2023-01-01T08:30:01.340Z,14
2023-01-01T08:33:01.147Z,14
2023-01-01T08:36:01.136Z,14
2023-01-01T08:39:01.177Z,14
2023-01-01T08:42:01.195Z,14
2023-01-01T08:45:01.402Z,14
2023-01-01T08:48:01.088Z,14
2023-01-01T08:51:01.290Z,13.9
2023-01-01T08:54:01.144Z,13.9
2023-01-01T08:57:01.144Z,13.9
2023-01-01T09:00:01.377Z,13.9
2023-01-01T09:03:01.497Z,13.9
2023-01-01T09:06:01.196Z,13.9
2023-01-01T09:09:01.354Z,13.9
2023-01-01T09:12:01.166Z,13.9
2023-01-01T09:15:01.184Z,13.9
2023-01-01T09:18:01.166Z,14
2023-01-01T09:21:01.109Z,14
2023-01-01T09:24:01.099Z,14
2023-01-01T09:27:01.202Z,14
2023-01-01T09:30:01.370Z,14
2023-01-01T09:33:01.072Z,14
2023-01-01T09:36:01.055Z,14
2023-01-01T09:39:01.278Z,14
2023-01-01T09:42:01.099Z,14
2023-01-01T09:45:01.104Z,14
2023-01-01T09:48:01.130Z,14
2023-01-01T09:51:01.083Z,14
2023-01-01T09:54:01.238Z,14
2023-01-01T09:57:01.099Z,14
2023-01-01T10:00:01.391Z,14
2023-01-01T10:03:01.071Z,14.1
2023-01-01T10:06:01.118Z,14.1
2023-01-01T10:09:01.627Z,14.1
2023-01-01T10:12:01.202Z,14.1
2023-01-01T10:15:01.456Z,14.1
2023-01-01T10:18:01.097Z,14.1
2023-01-01T10:21:01.082Z,14.1
2023-01-01T10:24:01.171Z,14.1
2023-01-01T10:27:01.068Z,14.1
2023-01-01T10:30:05.057Z,14.1
2023-01-01T10:33:01.244Z,14.1
2023-01-01T10:36:01.107Z,14.1
2023-01-01T10:39:01.053Z,14.3
2023-01-01T10:42:01.254Z,14.3
2023-01-01T10:45:01.208Z,14.3
2023-01-01T10:48:01.147Z,14.4
2023-01-01T10:51:01.120Z,14.4
2023-01-01T10:54:01.193Z,14.4
2023-01-01T10:57:01.039Z,14.4
2023-01-01T11:00:01.169Z,14.4
2023-01-01T11:03:01.309Z,14.4
2023-01-01T11:06:01.190Z,14.4
2023-01-01T11:09:01.170Z,14.4
2023-01-01T11:12:12.058Z,14.4
2023-01-01T11:15:01.385Z,14.4
2023-01-01T11:18:01.149Z,14.4
2023-01-01T11:21:01.168Z,14.6
2023-01-01T11:24:01.109Z,14.6
2023-01-01T11:27:01.128Z,14.6
2023-01-01T11:30:01.196Z,14.6
2023-01-01T11:33:01.193Z,14.6
2023-01-01T11:36:01.116Z,14.6
2023-01-01T11:39:01.185Z,14.6
2023-01-01T11:42:01.302Z,14.6
2023-01-01T11:45:01.144Z,14.6
2023-01-01T11:48:01.243Z,14.6
2023-01-01T11:51:01.050Z,14.6
2023-01-01T11:54:01.305Z,14.6
2023-01-01T11:57:01.224Z,14.6
2023-01-01T12:00:01.368Z,14.6
2023-01-01T12:03:01.212Z,14.6
2023-01-01T12:06:01.153Z,14.6
2023-01-01T12:09:01.255Z,14.6
2023-01-01T12:12:01.233Z,14.6
2023-01-01T12:15:01.142Z,14.6
2023-01-01T12:18:01.198Z,14.1
2023-01-01T12:21:01.149Z,14.1
2023-01-01T12:24:01.086Z,14.1
2023-01-01T12:27:10.672Z,14.1
2023-01-01T12:30:01.263Z,14
2023-01-01T12:33:08.345Z,14
2023-01-01T12:36:01.126Z,14
2023-01-01T12:39:01.115Z,14
2023-01-01T12:42:01.155Z,13.9
2023-01-01T12:45:01.140Z,13.9
2023-01-01T12:48:01.168Z,13.9
2023-01-01T12:51:05.676Z,13.9
2023-01-01T12:54:01.109Z,13.9
2023-01-01T12:57:01.106Z,13.9
2023-01-01T13:00:01.252Z,13.9
2023-01-01T13:03:01.256Z,13.9
2023-01-01T13:06:01.231Z,13.9
2023-01-01T13:09:01.105Z,13.9
2023-01-01T13:12:01.156Z,13.9
2023-01-01T13:15:01.160Z,13.9
2023-01-01T13:18:01.190Z,13.9
2023-01-01T13:21:01.054Z,13.9
2023-01-01T13:24:01.121Z,13.9
2023-01-01T13:27:09.067Z,13.9
2023-01-01T13:30:01.208Z,13.9
2023-01-01T13:33:01.122Z,13.9
2023-01-01T13:36:01.147Z,13.9
2023-01-01T13:39:01.200Z,13.9
2023-01-01T13:42:01.115Z,13.9
2023-01-01T13:45:01.098Z,13.9
2023-01-01T13:48:01.139Z,13.5
2023-01-01T13:51:01.164Z,13.5
2023-01-01T13:54:01.225Z,13.5
2023-01-01T13:57:01.134Z,13.4
2023-01-01T14:00:01.377Z,13.4
2023-01-01T14:03:01.347Z,13.4
2023-01-01T14:06:01.150Z,13.4
2023-01-01T14:09:01.100Z,13.4
2023-01-01T14:12:01.118Z,13.4
2023-01-01T14:15:01.169Z,13.4
2023-01-01T14:18:01.257Z,13.4
2023-01-01T14:21:01.151Z,13.4
2023-01-01T14:24:01.360Z,13.4
2023-01-01T14:27:01.159Z,13.4
2023-01-01T14:30:01.137Z,13.4
2023-01-01T14:33:01.215Z,13.2
2023-01-01T14:36:01.094Z,13.2
2023-01-01T14:39:01.187Z,13.1
2023-01-01T14:42:01.223Z,13.1
2023-01-01T14:45:01.193Z,13.1
2023-01-01T14:48:01.120Z,13.2
2023-01-01T14:51:01.202Z,13.2
2023-01-01T14:54:01.164Z,13.2
2023-01-01T14:57:01.297Z,13.2
2023-01-01T15:00:01.242Z,13.2
2023-01-01T15:03:01.340Z,13.2
2023-01-01T15:06:01.158Z,13.2
2023-01-01T15:09:01.106Z,13.2
2023-01-01T15:12:01.397Z,13.2
2023-01-01T15:15:01.068Z,13.2
2023-01-01T15:18:01.138Z,13.2
2023-01-01T15:21:01.043Z,13.2
2023-01-01T15:24:01.032Z,13.2
2023-01-01T15:27:01.119Z,13.2
2023-01-01T15:30:01.154Z,13.2
2023-01-01T15:33:01.089Z,13.2
2023-01-01T15:36:01.119Z,13.1
2023-01-01T15:39:01.051Z,13.1
2023-01-01T15:42:01.108Z,13.1
2023-01-01T15:45:01.117Z,13.1
2023-01-01T15:48:01.104Z,13.1
2023-01-01T15:51:01.144Z,13.1
2023-01-01T15:54:01.077Z,13.1
2023-01-01T15:57:01.255Z,13
2023-01-01T16:00:01.185Z,13
2023-01-01T16:03:01.149Z,13
2023-01-01T16:06:01.102Z,13
2023-01-01T16:09:01.131Z,13
2023-01-01T16:12:01.312Z,13
2023-01-01T16:15:01.050Z,13
2023-01-01T16:18:01.139Z,13
2023-01-01T16:21:01.095Z,13
2023-01-01T16:24:01.097Z,13
2023-01-01T16:27:01.073Z,13
2023-01-01T16:30:01.173Z,13
2023-01-01T16:33:01.058Z,13
2023-01-01T16:36:01.055Z,13
2023-01-01T16:39:01.120Z,13
2023-01-01T16:42:01.062Z,13
2023-01-01T16:45:01.034Z,13
2023-01-01T16:48:00.990Z,13
2023-01-01T16:51:01.110Z,13
2023-01-01T16:54:01.261Z,13
2023-01-01T16:57:01.046Z,13
2023-01-01T17:00:01.187Z,13
2023-01-01T17:03:01.214Z,13
2023-01-01T17:06:01.078Z,13
2023-01-01T17:09:01.009Z,13
2023-01-01T17:12:01.203Z,13
2023-01-01T17:15:01.128Z,13
2023-01-01T17:18:01.108Z,13
2023-01-01T17:21:01.041Z,13
2023-01-01T17:24:01.026Z,13
2023-01-01T17:27:01.092Z,13
2023-01-01T17:30:01.219Z,12.7
2023-01-01T17:33:01.043Z,12.7
2023-01-01T17:36:01.097Z,12.7
2023-01-01T17:39:01.064Z,12.7
2023-01-01T17:42:01.129Z,12.7
2023-01-01T17:45:01.169Z,12.7
2023-01-01T17:48:01.103Z,12.7
2023-01-01T17:51:01.076Z,12.7
2023-01-01T17:54:01.124Z,12.7
2023-01-01T17:57:01.062Z,12.7
2023-01-01T18:00:01.151Z,12.7
2023-01-01T18:03:01.270Z,12.7
2023-01-01T18:06:01.749Z,12.4
2023-01-01T18:09:01.112Z,12.4
2023-01-01T18:12:01.108Z,12.4
2023-01-01T18:15:01.124Z,12.4
2023-01-01T18:18:01.101Z,12.4
2023-01-01T18:21:01.099Z,12.4
2023-01-01T18:24:01.091Z,12.4
2023-01-01T18:27:01.071Z,12.6
2023-01-01T18:30:01.256Z,12.6
2023-01-01T18:33:01.017Z,12.6
2023-01-01T18:36:01.113Z,12.6
2023-01-01T18:39:01.040Z,12.6
2023-01-01T18:42:01.103Z,12.6
2023-01-01T18:45:01.011Z,12.6
2023-01-01T18:48:01.211Z,12.6
2023-01-01T18:51:00.997Z,12.6
2023-01-01T18:54:01.093Z,12.6
2023-01-01T18:57:01.083Z,12.6
2023-01-01T19:00:01.064Z,12.6
2023-01-01T19:03:01.168Z,12.6
2023-01-01T19:06:01.127Z,12.6
2023-01-01T19:09:01.065Z,12.6
2023-01-01T19:12:01.068Z,12.6
2023-01-01T19:15:01.048Z,12.6
2023-01-01T19:18:01.212Z,12.8
2023-01-01T19:21:01.077Z,12.8
2023-01-01T19:24:01.054Z,12.8
2023-01-01T19:27:01.071Z,12.8
2023-01-01T19:30:01.043Z,12.8
2023-01-01T19:33:01.170Z,12.8
2023-01-01T19:36:01.051Z,12.8
2023-01-01T19:39:01.008Z,12.8
2023-01-01T19:42:01.029Z,12.8
2023-01-01T19:45:01.050Z,12.8
2023-01-01T19:48:01.066Z,12.8
2023-01-01T19:51:01.096Z,12.8
2023-01-01T19:54:01.119Z,12.8
2023-01-01T19:57:01.080Z,12.8
2023-01-01T20:00:01.111Z,12.8
2023-01-01T20:03:53.204Z,12.8
2023-01-01T20:06:01.092Z,12.8
2023-01-01T20:09:01.084Z,12.8
2023-01-01T20:12:01.037Z,12.8
2023-01-01T20:15:01.132Z,12.3
2023-01-01T20:18:01.013Z,12.4
2023-01-01T20:21:01.052Z,12.4
2023-01-01T20:24:01.053Z,12.4
2023-01-01T20:27:01.140Z,12.4
2023-01-01T20:30:01.085Z,12.4
2023-01-01T20:33:01.094Z,12.4
2023-01-01T20:36:01.175Z,12.4
2023-01-01T20:39:01.220Z,12.4
2023-01-01T20:42:01.079Z,12.4
2023-01-01T20:45:01.051Z,12.4
2023-01-01T20:48:01.073Z,12.4
2023-01-01T20:51:01.071Z,12.4
2023-01-01T20:54:01.094Z,12.4
2023-01-01T20:57:01.060Z,12.4
2023-01-01T21:00:01.244Z,12.4
2023-01-01T21:03:01.267Z,12.4
2023-01-01T21:06:01.235Z,12.4
2023-01-01T21:09:01.067Z,12.4
2023-01-01T21:12:01.089Z,12.1
2023-01-01T21:15:01.052Z,12.1
2023-01-01T21:18:01.031Z,12.1
2023-01-01T21:21:01.103Z,12.1
2023-01-01T21:24:01.085Z,12.1
2023-01-01T21:27:01.093Z,12.1
2023-01-01T21:30:01.117Z,12.1
2023-01-01T21:33:01.067Z,12
2023-01-01T21:36:01.084Z,12
2023-01-01T21:39:01.028Z,12
2023-01-01T21:42:01.034Z,12
2023-01-01T21:45:01.216Z,11.9
2023-01-01T21:48:01.057Z,11.9
2023-01-01T21:51:01.067Z,11.9
2023-01-01T21:54:01.041Z,11.9
2023-01-01T21:57:01.115Z,11.9
2023-01-01T22:00:01.110Z,11.8
2023-01-01T22:03:01.104Z,11.8
2023-01-01T22:06:01.050Z,11.8
2023-01-01T22:09:01.150Z,11.8
2023-01-01T22:12:01.167Z,11.8
2023-01-01T22:15:01.056Z,11.9
2023-01-01T22:18:01.076Z,11.9
2023-01-01T22:21:01.214Z,11.8
2023-01-01T22:24:01.072Z,11.8
2023-01-01T22:27:01.056Z,11.8
2023-01-01T22:30:01.070Z,11.8
2023-01-01T22:33:00.992Z,11.8
2023-01-01T22:36:01.441Z,11.8
2023-01-01T22:39:01.058Z,11.8
2023-01-01T22:42:01.069Z,11.7
2023-01-01T22:45:01.052Z,11.7
2023-01-01T22:48:01.044Z,11.7
2023-01-01T22:51:01.028Z,11.7
2023-01-01T22:54:00.981Z,11.7
2023-01-01T22:57:01.040Z,11.7
2023-01-01T23:00:02.016Z,11.7
2023-01-01T23:03:01.239Z,11.7
2023-01-01T23:06:01.008Z,11.7
2023-01-01T23:09:00.973Z,11.7
2023-01-01T23:12:00.987Z,11.7
2023-01-01T23:15:00.982Z,11.7
2023-01-01T23:18:00.998Z,11.7
2023-01-01T23:21:01.028Z,11.6
2023-01-01T23:24:00.987Z,11.6
2023-01-01T23:27:00.957Z,11.6
2023-01-01T23:30:00.959Z,11.6
2023-01-01T23:33:00.989Z,11.6
2023-01-01T23:36:00.992Z,11.6
2023-01-01T23:39:01.028Z,11.6
2023-01-01T23:42:01.000Z,11.6
2023-01-01T23:45:01.035Z,11.6
2023-01-01T23:48:00.963Z,11.5
2023-01-01T23:51:01.028Z,11.5
2023-01-01T23:54:01.002Z,11.5
2023-01-01T23:57:00.984Z,11.5
